Time;durP1;ratioP1;P1;durP2;ratioP2;P2;SDS_P1;SDS_P2;PMS_P1;PMS_P2;Temp;Humidity;BMP_temperature;BMP_pressure;BME280_temperature;BME280_humidity;BME280_pressure;Samples;Min_cycle;Max_cycle;Signal;HPM_P1;HPM_P2
2021/03/05 00:01:06;;;;;;;;;;;;;;;3.09;85.57;99244.81;5115408;28;19928;-63
2021/03/05 00:03:34;;;;;;;;;;;;;;;3.17;86.00;99240.75;5115262;28;19955;-63
2021/03/05 00:06:04;;;;;;;;;;;;;;;3.17;85.99;99243.28;5115015;28;19924;-63
2021/03/05 00:08:32;;;;;;;;;;;;;;;2.92;86.24;99243.59;5096994;28;19930;-63
2021/03/05 00:11:03;;;;;;;;;;;;;;;2.91;86.55;99244.38;5115509;28;20316;-63
2021/03/05 00:13:30;;;;;;;;;;;;;;;2.80;86.23;99244.16;5115195;28;19924;-63
2021/03/05 00:15:59;;;;;;;;;;;;;;;2.97;86.66;99249.56;5115041;28;19924;-63
2021/03/05 00:18:27;;;;;;;;;;;;;;;2.99;85.98;99247.94;5115055;28;19947;-63
2021/03/05 00:20:56;;;;;;;;;;;;;;;2.76;86.56;99242.38;5114951;28;19924;-63
2021/03/05 00:23:23;;;;;;;;;;;;;;;2.78;86.19;99234.88;5114955;28;20357;-63
2021/03/05 00:26:00;;;;;;;;;;;;;;;2.88;86.35;99226.69;5114845;28;19968;-63
2021/03/05 00:28:28;;;;;;;;;;;;;;;3.08;86.48;99223.78;5114875;28;19935;-63
2021/03/05 00:30:55;;;;;;;;;;;;;;;3.14;85.93;99228.13;5114832;28;19930;-63
2021/03/05 00:33:24;;;;;;;;;;;;;;;3.19;86.05;99226.53;5114746;28;19924;-63
2021/03/05 00:35:56;;;;;;;;;;;;;;;3.01;86.09;99219.44;5115325;28;19924;-63
2021/03/05 00:38:24;;;;;;;;;;;;;;;2.95;86.18;99221.81;5114784;28;19931;-63
2021/03/05 00:40:52;;;;;;;;;;;;;;;3.00;86.86;99224.44;5114450;28;19953;-63
2021/03/05 00:43:20;;;;;;;;;;;;;;;3.01;86.91;99221.09;5114690;28;19931;-63
2021/03/05 00:45:48;;;;;;;;;;;;;;;2.99;86.34;99220.22;5114640;28;19969;-63
2021/03/05 00:48:17;;;;;;;;;;;;;;;2.99;86.11;99213.50;5114505;28;19927;-63
2021/03/05 00:50:46;;;;;;;;;;;;;;;3.07;86.36;99216.19;5114577;28;20022;-63
2021/03/05 00:53:14;;;;;;;;;;;;;;;3.05;86.83;99211.09;5096380;28;19927;-63
2021/03/05 00:55:43;;;;;;;;;;;;;;;2.86;87.02;99208.16;5114552;28;19966;-63
2021/03/05 00:58:17;;;;;;;;;;;;;;;3.07;86.59;99199.38;5114493;28;19966;-63
2021/03/05 01:00:44;;;;;;;;;;;;;;;3.11;86.68;99192.75;5114474;28;19924;-63
2021/03/05 01:03:16;;;;;;;;;;;;;;;3.05;87.17;99193.47;5096355;28;19992;-63
2021/03/05 01:05:43;;;;;;;;;;;;;;;3.18;86.74;99187.00;5114081;28;19924;-63
2021/03/05 01:08:14;;;;;;;;;;;;;;;3.24;86.31;99189.66;5114335;28;19923;-63
2021/03/05 01:10:46;;;;;;;;;;;;;;;3.29;86.95;99186.41;5079668;28;19947;-63
2021/03/05 01:13:14;;;;;;;;;;;;;;;3.41;87.24;99193.34;5114346;28;19931;-64
2021/03/05 01:15:41;;;;;;;;;;;;;;;3.52;87.00;99196.94;5114210;28;19924;-63
2021/03/05 01:18:14;;;;;;;;;;;;;;;3.58;86.72;99201.25;5114381;28;19924;-64
2021/03/05 01:20:42;;;;;;;;;;;;;;;3.65;86.89;99198.88;5114253;28;19931;-63
2021/03/05 01:23:10;;;;;;;;;;;;;;;3.66;87.02;99194.69;5114855;28;20042;-64
2021/03/05 01:25:39;;;;;;;;;;;;;;;3.68;86.72;99193.88;5114166;28;19932;-64
2021/03/05 01:28:07;;;;;;;;;;;;;;;3.61;86.66;99197.13;5114158;28;19924;-63
2021/03/05 01:30:34;;;;;;;;;;;;;;;3.59;86.90;99188.69;5114151;28;20387;-64
2021/03/05 01:33:02;;;;;;;;;;;;;;;3.58;86.36;99197.06;5114199;28;19969;-64
2021/03/05 01:35:30;;;;;;;;;;;;;;;3.60;86.59;99185.31;5095904;28;19969;-63
2021/03/05 01:37:58;;;;;;;;;;;;;;;3.49;86.39;99176.72;5114152;28;19923;-63
2021/03/05 01:40:28;;;;;;;;;;;;;;;3.47;85.89;99167.41;5113947;28;20018;-63
2021/03/05 01:42:57;;;;;;;;;;;;;;;3.38;86.12;99178.19;5114331;28;20334;-63
2021/03/05 01:45:26;;;;;;;;;;;;;;;3.37;86.30;99171.44;5114103;28;20363;-63
2021/03/05 01:47:55;;;;;;;;;;;;;;;3.30;86.53;99172.13;5113911;28;19931;-63
2021/03/05 01:50:25;;;;;;;;;;;;;;;3.09;86.26;99172.56;5114007;28;19944;-63
2021/03/05 01:52:56;;;;;;;;;;;;;;;3.18;86.63;99169.38;5115280;28;19976;-63
2021/03/05 01:55:25;;;;;;;;;;;;;;;3.19;86.16;99161.81;5117947;28;19930;-63
2021/03/05 01:57:53;;;;;;;;;;;;;;;3.15;86.35;99154.16;5117778;28;19923;-63
2021/03/05 02:00:25;;;;;;;;;;;;;;;3.23;86.33;99167.78;5117781;28;19957;-63
2021/03/05 02:02:53;;;;;;;;;;;;;;;2.94;86.46;99158.78;5117805;28;19930;-63
2021/03/05 02:05:21;;;;;;;;;;;;;;;3.00;86.80;99153.88;5117910;28;19963;-64
2021/03/05 02:07:49;;;;;;;;;;;;;;;3.08;87.00;99157.38;5117398;28;20363;-63
2021/03/05 02:10:17;;;;;;;;;;;;;;;3.03;87.46;99148.88;5117559;28;19928;-64
2021/03/05 02:12:44;;;;;;;;;;;;;;;2.88;87.24;99144.38;5117567;28;19971;-64
2021/03/05 02:15:13;;;;;;;;;;;;;;;2.78;87.43;99139.13;5117356;28;19954;-63
2021/03/05 02:17:49;;;;;;;;;;;;;;;2.83;86.96;99140.09;5117422;28;19924;-64
2021/03/05 02:20:20;;;;;;;;;;;;;;;2.85;86.70;99125.84;5117765;28;20316;-63
2021/03/05 02:22:58;;;;;;;;;;;;;;;2.81;87.22;99131.66;5117641;28;20013;-63
2021/03/05 02:25:37;;;;;;;;;;;;;;;2.93;86.93;99131.91;5117419;28;19977;-63
2021/03/05 02:28:15;;;;;;;;;;;;;;;2.78;87.16;99136.59;5117097;28;19924;-63
2021/03/05 02:30:53;;;;;;;;;;;;;;;2.63;87.59;99132.94;5117587;28;20419;-63
2021/03/05 02:33:24;;;;;;;;;;;;;;;2.57;87.48;99122.72;5117538;28;20000;-63
2021/03/05 02:35:53;;;;;;;;;;;;;;;2.54;87.51;99137.75;5117110;28;19950;-63
2021/03/05 02:38:24;;;;;;;;;;;;;;;2.50;86.79;99125.94;5117050;28;19924;-63
2021/03/05 02:40:52;;;;;;;;;;;;;;;2.58;87.60;99124.44;5116999;28;19980;-63
2021/03/05 02:43:22;;;;;;;;;;;;;;;2.60;87.50;99116.91;5116966;28;19928;-64
2021/03/05 02:45:55;;;;;;;;;;;;;;;2.52;86.86;99113.41;5116873;28;19924;-64
2021/03/05 02:48:27;;;;;;;;;;;;;;;2.57;87.76;99117.69;5116841;28;19923;-64
2021/03/05 02:50:58;;;;;;;;;;;;;;;2.36;87.22;99111.31;5116823;28;20351;-63
2021/03/05 02:53:28;;;;;;;;;;;;;;;2.37;87.65;99123.97;5116854;28;20391;-63
2021/03/05 02:55:58;;;;;;;;;;;;;;;2.48;87.73;99122.53;5116646;28;19924;-64
2021/03/05 02:58:25;;;;;;;;;;;;;;;2.50;87.07;99128.44;5117006;28;19924;-63
2021/03/05 03:00:54;;;;;;;;;;;;;;;2.55;87.14;99123.50;5116590;28;19977;-63
2021/03/05 03:03:22;;;;;;;;;;;;;;;2.60;87.69;99122.81;5116478;28;19923;-63
2021/03/05 03:05:51;;;;;;;;;;;;;;;2.65;87.68;99127.94;5116476;28;19930;-63
2021/03/05 03:08:19;;;;;;;;;;;;;;;2.68;86.75;99116.28;5116784;28;19955;-63
2021/03/05 03:10:48;;;;;;;;;;;;;;;2.48;87.35;99111.59;5116414;28;20400;-63
2021/03/05 03:13:16;;;;;;;;;;;;;;;2.45;86.68;99114.03;5098429;28;19969;-63
2021/03/05 03:15:43;;;;;;;;;;;;;;;2.43;86.92;99115.69;5116340;28;19993;-63
2021/03/05 03:18:13;;;;;;;;;;;;;;;2.33;87.27;99129.72;5116228;28;20331;-63
2021/03/05 03:20:42;;;;;;;;;;;;;;;2.32;87.38;99135.59;5116518;28;19930;-63
2021/03/05 03:23:11;;;;;;;;;;;;;;;2.18;86.63;99129.41;5116031;28;19978;-63
2021/03/05 03:25:38;;;;;;;;;;;;;;;2.15;87.22;99116.75;5116137;28;19951;-63
2021/03/05 03:28:06;;;;;;;;;;;;;;;2.16;86.41;99120.94;5116045;28;19973;-63
2021/03/05 03:30:34;;;;;;;;;;;;;;;2.05;86.27;99119.84;5115987;28;19973;-63
2021/03/05 03:33:02;;;;;;;;;;;;;;;2.08;86.55;99127.47;5116011;28;19924;-63
2021/03/05 03:35:30;;;;;;;;;;;;;;;1.98;86.53;99135.63;5115765;28;20026;-63
2021/03/05 03:38:14;;;;;;;;;;;;;;;1.89;86.45;99135.41;5115956;28;19963;-63
2021/03/05 03:40:42;;;;;;;;;;;;;;;2.01;86.65;99143.25;5116086;28;19923;-63
2021/03/05 03:43:10;;;;;;;;;;;;;;;1.82;86.33;99151.16;5115793;28;20038;-63
2021/03/05 03:45:40;;;;;;;;;;;;;;;1.73;86.99;99148.38;5115638;28;19927;-63
2021/03/05 03:48:09;;;;;;;;;;;;;;;1.86;86.68;99143.72;5115589;28;20317;-63
2021/03/05 03:50:39;;;;;;;;;;;;;;;1.97;86.50;99147.34;5115594;28;19924;-63
2021/03/05 03:53:11;;;;;;;;;;;;;;;1.68;86.84;99147.44;5115630;28;19924;-63
2021/03/05 03:55:39;;;;;;;;;;;;;;;1.59;86.37;99142.16;5115895;28;19927;-63
2021/03/05 03:58:08;;;;;;;;;;;;;;;1.74;86.76;99142.56;5115333;28;19924;-63
2021/03/05 04:00:37;;;;;;;;;;;;;;;1.77;86.41;99145.16;5115441;28;19924;-63
2021/03/05 04:03:05;;;;;;;;;;;;;;;1.95;86.51;99141.44;5115264;28;19950;-63
2021/03/05 04:05:37;;;;;;;;;;;;;;;2.04;86.87;99143.28;5115180;28;19923;-66
2021/03/05 04:08:07;;;;;;;;;;;;;;;2.01;86.22;99130.66;5115240;28;19924;-63
2021/03/05 04:10:36;;;;;;;;;;;;;;;2.13;86.50;99127.59;5115332;28;20296;-63
2021/03/05 04:13:05;;;;;;;;;;;;;;;2.29;87.14;99135.53;5115093;28;20024;-63
2021/03/05 04:15:33;;;;;;;;;;;;;;;2.16;87.12;99133.53;5096512;28;20292;-63
2021/03/05 04:18:00;;;;;;;;;;;;;;;2.03;86.58;99131.56;5115112;28;19924;-63
2021/03/05 04:20:29;;;;;;;;;;;;;;;2.18;87.43;99131.06;5115099;28;19934;-63
2021/03/05 04:22:58;;;;;;;;;;;;;;;2.05;87.18;99134.94;5115020;28;19923;-63
2021/03/05 04:25:26;;;;;;;;;;;;;;;2.07;86.97;99130.78;5115034;28;19930;-63
2021/03/05 04:27:54;;;;;;;;;;;;;;;2.24;87.30;99137.09;5114918;28;20373;-63
2021/03/05 04:30:23;;;;;;;;;;;;;;;2.20;86.87;99131.94;5114837;28;19963;-63
2021/03/05 04:32:51;;;;;;;;;;;;;;;2.23;86.98;99135.38;5114797;28;20285;-64
2021/03/05 04:35:19;;;;;;;;;;;;;;;2.17;86.83;99134.38;5096670;28;20342;-63
2021/03/05 04:37:47;;;;;;;;;;;;;;;2.15;87.16;99138.53;5114758;28;19931;-63
2021/03/05 04:40:14;;;;;;;;;;;;;;;2.26;87.41;99130.41;5114664;28;19924;-63
2021/03/05 04:42:42;;;;;;;;;;;;;;;2.35;87.75;99115.50;5114992;28;19985;-63
2021/03/05 04:45:10;;;;;;;;;;;;;;;2.28;87.81;99121.22;5114610;28;19931;-63
2021/03/05 04:47:39;;;;;;;;;;;;;;;2.31;86.95;99123.81;5114856;28;20384;-63
2021/03/05 04:50:07;;;;;;;;;;;;;;;2.31;87.10;99122.97;5114531;28;19927;-63
2021/03/05 04:52:35;;;;;;;;;;;;;;;2.39;87.43;99111.41;5096504;28;20018;-63
2021/03/05 04:55:03;;;;;;;;;;;;;;;2.45;87.56;99117.41;5114581;28;20381;-63
2021/03/05 04:57:30;;;;;;;;;;;;;;;2.64;87.66;99116.13;5114384;28;19955;-63
2021/03/05 04:59:58;;;;;;;;;;;;;;;2.67;87.97;99113.69;5114521;28;19927;-64
2021/03/05 05:02:26;;;;;;;;;;;;;;;2.76;88.00;99108.84;5114454;28;19923;-64
2021/03/05 05:04:54;;;;;;;;;;;;;;;2.83;87.21;99104.81;5114433;28;20389;-63
2021/03/05 05:07:22;;;;;;;;;;;;;;;2.72;87.81;99107.94;5114098;28;19924;-64
2021/03/05 05:09:52;;;;;;;;;;;;;;;2.86;87.74;99104.84;5114407;28;20385;-63
2021/03/05 05:12:20;;;;;;;;;;;;;;;2.99;87.06;99106.81;5114344;28;19930;-63
2021/03/05 05:14:47;;;;;;;;;;;;;;;2.99;87.07;99109.31;5114345;28;19923;-63
2021/03/05 05:17:15;;;;;;;;;;;;;;;3.03;87.73;99113.59;5114577;28;19923;-63
2021/03/05 05:19:43;;;;;;;;;;;;;;;3.08;86.95;99112.88;5114305;28;20381;-63
2021/03/05 05:22:12;;;;;;;;;;;;;;;3.18;87.16;99118.94;5114192;28;19927;-63
2021/03/05 05:24:39;;;;;;;;;;;;;;;3.11;87.02;99123.03;5114571;28;19924;-63
2021/03/05 05:27:07;;;;;;;;;;;;;;;3.13;87.00;99121.38;5114163;28;20373;-63
2021/03/05 05:29:34;;;;;;;;;;;;;;;3.19;87.51;99125.69;5118201;28;19924;-63
2021/03/05 05:32:02;;;;;;;;;;;;;;;3.27;87.33;99119.13;5118354;28;19970;-63
2021/03/05 05:34:30;;;;;;;;;;;;;;;3.30;87.79;99115.00;5118233;28;19930;-63
2021/03/05 05:36:59;;;;;;;;;;;;;;;3.34;87.42;99115.88;5118253;28;19924;-63
2021/03/05 05:39:41;;;;;;;;;;;;;;;3.34;87.36;99116.75;5118537;28;19969;-63
2021/03/05 05:42:09;;;;;;;;;;;;;;;3.38;87.47;99113.44;5118171;28;20396;-63
2021/03/05 05:44:37;;;;;;;;;;;;;;;3.42;87.60;99118.56;5117953;28;19930;-63
2021/03/05 05:47:04;;;;;;;;;;;;;;;3.35;87.22;99122.63;5117935;28;19928;-63
2021/03/05 05:49:33;;;;;;;;;;;;;;;3.32;87.38;99115.88;5117926;28;19924;-63
2021/03/05 05:52:03;;;;;;;;;;;;;;;3.43;88.03;99115.22;5117897;28;19924;-63
2021/03/05 05:54:33;;;;;;;;;;;;;;;3.49;87.52;99121.22;5117824;28;19923;-63
2021/03/05 05:57:02;;;;;;;;;;;;;;;3.57;87.66;99129.78;5117809;28;19947;-63
2021/03/05 05:59:30;;;;;;;;;;;;;;;3.59;87.52;99132.31;5117652;28;19927;-64
2021/03/05 06:01:58;;;;;;;;;;;;;;;3.55;87.47;99136.44;5118051;28;19928;-64
2021/03/05 06:04:27;;;;;;;;;;;;;;;3.55;87.18;99143.19;5117756;28;19963;-64
2021/03/05 06:06:56;;;;;;;;;;;;;;;3.47;87.42;99148.09;5117290;28;19923;-63
2021/03/05 06:09:23;;;;;;;;;;;;;;;3.41;87.76;99147.13;5117956;28;19969;-64
2021/03/05 06:11:52;;;;;;;;;;;;;;;3.29;87.94;99147.72;5117550;28;19924;-64
2021/03/05 06:14:20;;;;;;;;;;;;;;;3.24;88.25;99149.31;5117552;28;19984;-64
2021/03/05 06:16:55;;;;;;;;;;;;;;;3.13;88.07;99135.66;5117281;28;19927;-64
2021/03/05 06:19:25;;;;;;;;;;;;;;;3.13;87.54;99136.50;5117545;28;19980;-64
2021/03/05 06:21:56;;;;;;;;;;;;;;;3.20;87.70;99137.47;5117352;28;19930;-64
2021/03/05 06:24:24;;;;;;;;;;;;;;;3.34;88.49;99151.19;5117345;28;19923;-64
2021/03/05 06:26:53;;;;;;;;;;;;;;;3.42;88.45;99149.66;5117159;28;20366;-64
2021/03/05 06:29:23;;;;;;;;;;;;;;;3.52;87.88;99149.03;5117523;28;19924;-63
2021/03/05 06:31:53;;;;;;;;;;;;;;;3.47;88.59;99143.03;5117163;28;19923;-64
2021/03/05 06:34:21;;;;;;;;;;;;;;;3.55;88.68;99146.53;5117111;28;19924;-64
2021/03/05 06:36:59;;;;;;;;;;;;;;;3.53;88.47;99158.28;5117051;28;19928;-64
2021/03/05 06:39:29;;;;;;;;;;;;;;;3.59;88.16;99152.50;5116580;28;19975;-64
2021/03/05 06:42:00;;;;;;;;;;;;;;;3.65;88.49;99158.50;5116942;28;19977;-64
2021/03/05 06:44:30;;;;;;;;;;;;;;;3.69;88.69;99157.75;5117216;28;20315;-64
2021/03/05 06:47:07;;;;;;;;;;;;;;;3.73;88.11;99156.13;5116703;28;19931;-64
2021/03/05 06:49:35;;;;;;;;;;;;;;;3.76;88.75;99152.00;5116631;28;20007;-64
2021/03/05 06:52:02;;;;;;;;;;;;;;;3.75;88.86;99150.28;5116874;28;19969;-64
2021/03/05 06:54:31;;;;;;;;;;;;;;;3.72;88.98;99155.25;5116554;28;19923;-64
2021/03/05 06:56:59;;;;;;;;;;;;;;;3.75;88.68;99150.28;5116691;28;19927;-64
2021/03/05 06:59:35;;;;;;;;;;;;;;;3.79;88.96;99141.09;5116555;28;19973;-64
2021/03/05 07:02:03;;;;;;;;;;;;;;;3.78;88.92;99150.34;5116900;28;19931;-64
2021/03/05 07:04:31;;;;;;;;;;;;;;;3.85;88.64;99162.25;5116730;28;20019;-64
2021/03/05 07:07:03;;;;;;;;;;;;;;;3.93;89.23;99160.72;5116077;28;19924;-64
2021/03/05 07:09:32;;;;;;;;;;;;;;;3.97;88.84;99171.69;5116325;28;20270;-64
2021/03/05 07:12:01;;;;;;;;;;;;;;;3.97;88.35;99172.56;5116396;28;19924;-64
2021/03/05 07:14:30;;;;;;;;;;;;;;;4.00;88.62;99174.28;5116370;28;19927;-64
2021/03/05 07:16:59;;;;;;;;;;;;;;;4.04;88.72;99179.41;5116266;28;19962;-64
2021/03/05 07:19:28;;;;;;;;;;;;;;;4.11;89.29;99171.91;5116884;28;19932;-64
2021/03/05 07:21:56;;;;;;;;;;;;;;;4.19;89.28;99185.53;5116014;28;19924;-64
2021/03/05 07:24:25;;;;;;;;;;;;;;;4.21;89.34;99191.44;5116127;28;19930;-64
2021/03/05 07:26:59;;;;;;;;;;;;;;;4.22;89.32;99205.78;5116150;28;19923;-63
2021/03/05 07:29:29;;;;;;;;;;;;;;;4.22;88.84;99203.25;5116028;28;19963;-64
2021/03/05 07:31:59;;;;;;;;;;;;;;;4.23;89.27;99204.94;5115994;28;20010;-64
2021/03/05 07:34:30;;;;;;;;;;;;;;;4.25;89.21;99208.38;5115768;28;19931;-64
2021/03/05 07:36:58;;;;;;;;;;;;;;;4.27;88.86;99201.66;5115839;28;20289;-64
2021/03/05 07:39:27;;;;;;;;;;;;;;;4.29;89.14;99210.13;5116431;28;19931;-63
2021/03/05 07:41:56;;;;;;;;;;;;;;;4.34;88.75;99213.56;5116087;28;19923;-64
2021/03/05 07:44:25;;;;;;;;;;;;;;;4.37;89.07;99219.50;5115732;28;20011;-63
2021/03/05 07:46:53;;;;;;;;;;;;;;;4.42;89.28;99227.16;5115590;28;19932;-63
2021/03/05 07:49:27;;;;;;;;;;;;;;;4.42;88.95;99240.63;5115579;28;19946;-63
2021/03/05 07:51:57;;;;;;;;;;;;;;;4.45;88.68;99238.16;5114722;28;19924;-63
2021/03/05 07:54:36;;;;;;;;;;;;;;;4.48;89.11;99237.38;5115607;28;19924;-64
2021/03/05 07:57:04;;;;;;;;;;;;;;;4.52;88.76;99244.16;5115525;28;19923;-64
2021/03/05 07:59:46;;;;;;;;;;;;;;;4.55;89.17;99259.38;5115484;28;19953;-64
2021/03/05 08:02:15;;;;;;;;;;;;;;;4.59;89.51;99261.13;5114606;27;20369;-63
2021/03/05 08:04:55;;;;;;;;;;;;;;;4.64;88.96;99269.63;5115399;28;20280;-63
2021/03/05 08:07:24;;;;;;;;;;;;;;;4.67;89.16;99269.69;5114929;28;19924;-63
2021/03/05 08:09:52;;;;;;;;;;;;;;;4.64;88.94;99264.56;5115143;28;19931;-63
2021/03/05 08:12:31;;;;;;;;;;;;;;;4.58;88.73;99279.66;5115174;28;19970;-63
2021/03/05 08:15:14;;;;;;;;;;;;;;;4.46;89.16;99279.44;5115106;28;19959;-63
2021/03/05 08:17:42;;;;;;;;;;;;;;;4.39;88.59;99272.59;5115483;27;19923;-63
2021/03/05 08:20:11;;;;;;;;;;;;;;;4.29;88.71;99286.75;5114825;28;19931;-63
2021/03/05 08:22:54;;;;;;;;;;;;;;;4.22;88.20;99294.19;5114938;28;19927;-63
2021/03/05 08:25:23;;;;;;;;;;;;;;;4.09;88.51;99298.13;5114775;28;20373;-63
2021/03/05 08:27:52;;;;;;;;;;;;;;;4.12;88.56;99294.81;5114641;28;19927;-63
2021/03/05 08:30:20;;;;;;;;;;;;;;;4.10;88.34;99304.06;5114835;28;19924;-63
2021/03/05 08:32:53;;;;;;;;;;;;;;;4.05;87.86;99302.28;5114797;28;19939;-63
2021/03/05 08:35:36;;;;;;;;;;;;;;;4.04;88.38;99294.69;5114739;28;20362;-63
2021/03/05 08:38:06;;;;;;;;;;;;;;;4.14;87.91;99298.22;5114907;27;20472;-63
2021/03/05 08:40:36;;;;;;;;;;;;;;;4.21;87.55;99300.03;5114795;28;19923;-63
2021/03/05 08:43:21;;;;;;;;;;;;;;;4.25;87.75;99294.25;5114660;28;19923;-63
2021/03/05 08:45:50;;;;;;;;;;;;;;;4.37;87.79;99294.41;5114510;28;19928;-63
2021/03/05 08:48:28;;;;;;;;;;;;;;;4.55;87.22;99299.81;5114497;28;19930;-63
2021/03/05 08:51:08;;;;;;;;;;;;;;;4.72;87.47;99299.28;5096379;28;19923;-63
2021/03/05 08:53:40;;;;;;;;;;;;;;;4.83;86.81;99306.16;5114581;28;20444;-63
2021/03/05 08:56:09;;;;;;;;;;;;;;;4.95;86.59;99307.19;5114594;28;19923;-63
2021/03/05 08:58:36;;;;;;;;;;;;;;;5.02;86.51;99303.94;5096305;28;19949;-63
2021/03/05 09:01:04;;;;;;;;;;;;;;;5.07;86.30;99317.50;5114413;28;19924;-63
2021/03/05 09:03:32;;;;;;;;;;;;;;;5.04;86.02;99321.69;5114542;28;19931;-62
2021/03/05 09:06:00;;;;;;;;;;;;;;;5.05;86.01;99326.75;5114394;28;19955;-63
2021/03/05 09:08:31;;;;;;;;;;;;;;;5.11;85.86;99334.41;5114159;28;19937;-63
2021/03/05 09:11:00;;;;;;;;;;;;;;;5.09;85.25;99340.28;5114286;28;20324;-63
2021/03/05 09:13:30;;;;;;;;;;;;;;;5.03;85.42;99342.72;5114503;28;19931;-63
2021/03/05 09:15:59;;;;;;;;;;;;;;;4.98;85.21;99350.25;5114259;28;20297;-63
2021/03/05 09:18:28;;;;;;;;;;;;;;;5.01;84.29;99350.31;5114508;28;20010;-63
2021/03/05 09:20:58;;;;;;;;;;;;;;;5.03;84.53;99356.22;5062024;28;19924;-62
2021/03/05 09:23:29;;;;;;;;;;;;;;;5.05;83.72;99362.16;5114147;28;19968;-63
2021/03/05 09:25:59;;;;;;;;;;;;;;;5.22;83.34;99368.34;5114082;28;19931;-63
2021/03/05 09:28:28;;;;;;;;;;;;;;;5.39;82.81;99361.00;5114025;28;20369;-63
2021/03/05 09:30:57;;;;;;;;;;;;;;;5.39;81.87;99356.78;5114394;28;19992;-63
2021/03/05 09:33:42;;;;;;;;;;;;;;;5.46;81.81;99361.91;5114368;28;19923;-63
2021/03/05 09:36:11;;;;;;;;;;;;;;;5.46;80.77;99366.97;5113876;28;19923;-63
2021/03/05 09:38:40;;;;;;;;;;;;;;;5.58;80.87;99367.16;5114006;28;19928;-63
2021/03/05 09:41:15;;;;;;;;;;;;;;;5.53;80.71;99383.94;5078678;28;20022;-63
2021/03/05 09:43:43;;;;;;;;;;;;;;;5.49;80.27;99380.53;5114087;28;19949;-63
2021/03/05 09:46:20;;;;;;;;;;;;;;;5.41;80.18;99390.56;5113930;28;19924;-63
2021/03/05 09:48:48;;;;;;;;;;;;;;;5.35;79.96;99385.38;5113925;28;20384;-63
2021/03/05 09:51:16;;;;;;;;;;;;;;;5.35;79.76;99395.50;5113934;28;19984;-62
2021/03/05 09:53:52;;;;;;;;;;;;;;;5.23;79.30;99397.84;5113960;28;20399;-62
2021/03/05 09:56:24;;;;;;;;;;;;;;;5.19;79.11;99413.81;5113870;28;19924;-62
2021/03/05 09:58:53;;;;;;;;;;;;;;;5.16;79.15;99421.34;5113871;28;19924;-62
2021/03/05 10:01:22;;;;;;;;;;;;;;;5.20;78.97;99425.66;5114097;28;20375;-62
2021/03/05 10:03:54;;;;;;;;;;;;;;;5.06;78.73;99432.13;5113911;28;20014;-62
2021/03/05 10:06:21;;;;;;;;;;;;;;;5.01;78.63;99438.81;5113538;28;19931;-62
2021/03/05 10:08:57;;;;;;;;;;;;;;;5.00;78.45;99452.25;5113716;28;19928;-62
2021/03/05 10:11:29;;;;;;;;;;;;;;;5.00;78.02;99452.25;5113789;28;20027;-62
2021/03/05 10:13:57;;;;;;;;;;;;;;;5.09;78.07;99461.66;5114961;28;19924;-62
2021/03/05 10:16:28;;;;;;;;;;;;;;;5.23;77.49;99455.19;5117548;28;19923;-62
2021/03/05 10:19:00;;;;;;;;;;;;;;;5.43;77.50;99464.81;5117602;28;19972;-62
2021/03/05 10:21:28;;;;;;;;;;;;;;;5.63;76.73;99467.66;5117497;28;20293;-62
2021/03/05 10:23:57;;;;;;;;;;;;;;;5.95;76.07;99478.28;5117258;28;19923;-62
2021/03/05 10:26:26;;;;;;;;;;;;;;;6.13;74.60;99470.94;5117259;28;20105;-62
2021/03/05 10:28:55;;;;;;;;;;;;;;;6.12;73.80;99469.22;5117178;28;19977;-62
2021/03/05 10:31:38;;;;;;;;;;;;;;;6.09;73.47;99475.09;5117171;28;20018;-62
2021/03/05 10:34:18;;;;;;;;;;;;;;;6.07;73.87;99481.81;5116006;28;19923;-62
2021/03/05 10:36:45;;;;;;;;;;;;;;;6.01;73.43;99481.75;5117373;28;19923;-63
2021/03/05 10:39:13;;;;;;;;;;;;;;;6.03;72.86;99481.78;5117085;28;19978;-62
2021/03/05 10:41:41;;;;;;;;;;;;;;;5.95;72.65;99483.38;5116946;28;19924;-62
2021/03/05 10:44:08;;;;;;;;;;;;;;;5.95;72.05;99485.91;5116850;28;19977;-62
2021/03/05 10:46:36;;;;;;;;;;;;;;;6.08;71.98;99493.69;5117021;28;20014;-62
2021/03/05 10:49:04;;;;;;;;;;;;;;;6.17;70.97;99492.94;5116761;28;19923;-62
2021/03/05 10:51:33;;;;;;;;;;;;;;;6.25;70.81;99496.44;5116770;28;19927;-62
2021/03/05 10:54:01;;;;;;;;;;;;;;;6.09;71.11;99497.06;5116774;28;20006;-62
2021/03/05 10:56:29;;;;;;;;;;;;;;;6.08;71.20;99505.50;5116624;28;20003;-62
2021/03/05 10:58:57;;;;;;;;;;;;;;;6.05;71.01;99498.69;5116548;28;19947;-62
2021/03/05 11:01:24;;;;;;;;;;;;;;;6.01;70.54;99507.09;5116514;28;19930;-62
2021/03/05 11:03:52;;;;;;;;;;;;;;;6.00;70.17;99500.31;5116555;28;19931;-62
2021/03/05 11:06:20;;;;;;;;;;;;;;;6.03;70.38;99500.34;5116212;28;19928;-63
2021/03/05 11:08:49;;;;;;;;;;;;;;;6.14;70.44;99498.00;5116352;28;19931;-62
2021/03/05 11:11:17;;;;;;;;;;;;;;;6.30;70.34;99499.88;5115544;28;19927;-62
2021/03/05 11:13:52;;;;;;;;;;;;;;;6.47;69.50;99508.56;5116238;28;19930;-62
2021/03/05 11:16:21;;;;;;;;;;;;;;;6.65;68.78;99511.31;5115129;28;19957;-62
2021/03/05 11:18:49;;;;;;;;;;;;;;;6.74;68.84;99506.34;5116542;28;20281;-62
2021/03/05 11:21:16;;;;;;;;;;;;;;;6.85;67.92;99515.75;5116175;28;19930;-62
2021/03/05 11:23:44;;;;;;;;;;;;;;;6.86;67.90;99520.03;5116076;28;19931;-62
2021/03/05 11:26:13;;;;;;;;;;;;;;;6.94;67.66;99526.88;5115987;28;20498;-62
2021/03/05 11:28:41;;;;;;;;;;;;;;;6.97;66.09;99523.50;5116255;28;19924;-62
2021/03/05 11:31:10;;;;;;;;;;;;;;;7.33;65.89;99518.81;5115965;28;19946;-63
2021/03/05 11:33:39;;;;;;;;;;;;;;;7.88;65.08;99526.06;5115817;28;19924;-64
2021/03/05 11:36:08;;;;;;;;;;;;;;;8.48;63.78;99530.72;5115993;28;20006;-62
2021/03/05 11:38:36;;;;;;;;;;;;;;;8.55;60.60;99529.03;5116127;28;19927;-62
2021/03/05 11:41:04;;;;;;;;;;;;;;;9.04;61.65;99525.88;5115642;28;19946;-62
2021/03/05 11:43:32;;;;;;;;;;;;;;;9.08;60.83;99530.09;5115777;28;19930;-62
2021/03/05 11:46:00;;;;;;;;;;;;;;;9.18;58.77;99524.19;5115680;28;19923;-62
2021/03/05 11:48:28;;;;;;;;;;;;;;;9.10;59.73;99536.03;5115681;28;19924;-63
2021/03/05 11:50:56;;;;;;;;;;;;;;;9.08;58.22;99532.66;5115607;28;19924;-62
2021/03/05 11:53:24;;;;;;;;;;;;;;;8.86;58.40;99543.59;5115596;28;20388;-62
2021/03/05 11:55:52;;;;;;;;;;;;;;;9.18;58.61;99549.66;5115775;28;19924;-62
2021/03/05 11:58:20;;;;;;;;;;;;;;;9.50;57.40;99561.59;5115553;28;20284;-62
2021/03/05 12:00:49;;;;;;;;;;;;;;;9.88;57.21;99555.69;5115389;28;19984;-62
2021/03/05 12:03:18;;;;;;;;;;;;;;;9.12;57.83;99557.25;5115396;28;19972;-62
2021/03/05 12:05:45;;;;;;;;;;;;;;;9.90;57.73;99564.19;5115306;28;20312;-62
2021/03/05 12:08:15;;;;;;;;;;;;;;;9.38;56.42;99558.16;5115311;28;19924;-63
2021/03/05 12:10:44;;;;;;;;;;;;;;;9.27;55.49;99559.00;5115227;28;19930;-62
2021/03/05 12:13:12;;;;;;;;;;;;;;;9.42;56.05;99565.00;5115178;28;19928;-62
2021/03/05 12:15:40;;;;;;;;;;;;;;;9.91;55.65;99580.34;5115144;28;19928;-63
2021/03/05 12:18:09;;;;;;;;;;;;;;;9.53;57.53;99576.88;5115060;28;20031;-62
2021/03/05 12:20:38;;;;;;;;;;;;;;;9.01;56.80;99581.84;5115133;28;19931;-62
2021/03/05 12:23:06;;;;;;;;;;;;;;;9.55;55.88;99580.31;5114806;28;20374;-63
2021/03/05 12:25:35;;;;;;;;;;;;;;;9.14;56.22;99588.66;5114703;28;19927;-63
2021/03/05 12:28:04;;;;;;;;;;;;;;;8.54;56.51;99596.03;5114316;28;19924;-64
2021/03/05 12:30:31;;;;;;;;;;;;;;;8.09;57.48;99610.09;5114434;28;19928;-62
2021/03/05 12:33:01;;;;;;;;;;;;;;;7.84;58.48;99608.19;5115099;28;19924;-63
2021/03/05 12:35:29;;;;;;;;;;;;;;;7.59;58.54;99618.94;5114772;28;19985;-62
2021/03/05 12:37:57;;;;;;;;;;;;;;;7.32;59.20;99616.09;5114416;28;19924;-62
2021/03/05 12:40:25;;;;;;;;;;;;;;;7.22;59.28;99621.94;5115070;28;19931;-62
2021/03/05 12:42:56;;;;;;;;;;;;;;;7.17;60.29;99631.19;5115063;28;19927;-62
2021/03/05 12:45:24;;;;;;;;;;;;;;;7.14;59.64;99636.22;5114708;28;19974;-62
2021/03/05 12:47:51;;;;;;;;;;;;;;;7.07;59.86;99639.50;5113489;28;20327;-62
2021/03/05 12:50:20;;;;;;;;;;;;;;;7.05;59.92;99642.03;5114676;28;19960;-62
2021/03/05 12:52:49;;;;;;;;;;;;;;;7.11;59.71;99639.56;5114640;28;19969;-62
2021/03/05 12:55:18;;;;;;;;;;;;;;;7.27;59.98;99643.16;5114585;28;19973;-62
2021/03/05 12:57:46;;;;;;;;;;;;;;;7.25;58.93;99640.56;5114580;28;19924;-62
2021/03/05 13:00:14;;;;;;;;;;;;;;;7.29;59.17;99659.25;5114427;28;19959;-62
2021/03/05 13:02:41;;;;;;;;;;;;;;;7.24;59.40;99658.34;5114461;28;19928;-62
2021/03/05 13:05:10;;;;;;;;;;;;;;;7.61;59.27;99660.44;5114386;28;19931;-62
2021/03/05 13:07:43;;;;;;;;;;;;;;;8.87;56.22;99651.34;5114250;28;20347;-62
2021/03/05 13:10:13;;;;;;;;;;;;;;;9.29;56.00;99660.03;5114261;28;20381;-62